Date,TemperatureHighF,TemperatureAvgF,TemperatureLowF,DewpointHighF,DewpointAvgF,DewpointLowF,HumidityHigh,HumidityAvg,HumidityLow,PressureMaxIn,PressureMinIn,WindSpeedMaxMPH,WindSpeedAvgMPH,GustSpeedMaxMPH,PrecipitationSumIn
2013-1-1,15.4,6.6,-9.0,-0.1,-7.2,-22.3,56,52,43,29.97,29.88,4,2,4,0.00
2013-1-2,20.3,7.6,2.3,7.1,-4.4,-8.8,62,57,52,29.83,29.70,2,2,2,0.00
2013-1-3,14.2,8.2,5.0,0.2,-2.9,-5.2,65,60,53,30.00,29.93,10,3,10,0.00
2013-1-4,28.0,16.3,6.1,13.1,6.1,-3.2,73,64,52,29.93,29.84,11,2,11,0.00
2013-1-5,14.2,13.4,12.9,7.1,6.5,6.0,74,73,73,29.87,29.85,2,0,2,0.00
2013-1-6,19.9,13.0,8.2,7.5,2.8,-1.8,71,63,55,29.97,29.73,8,3,8,0.00
2013-1-7,40.1,26.6,13.5,26.0,16.4,5.5,79,66,53,29.90,29.70,4,2,4,0.04
2013-1-8,39.7,29.8,14.9,28.4,22.0,8.2,80,73,63,29.75,29.58,14,2,14,0.02
2013-1-9,38.3,29.7,24.8,25.5,20.7,17.6,78,69,54,30.13,29.72,15,3,15,0.00
2013-1-10,42.6,33.1,25.9,30.8,23.6,18.3,85,69,43,30.12,29.50,12,3,12,0.22
2013-1-11,44.2,37.0,34.2,41.5,33.4,30.1,91,86,84,29.50,29.22,4,1,4,0.04
2013-1-12,42.1,18.5,11.1,38.6,5.9,-2.0,88,57,50,29.79,29.23,17,6,17,0.00
2013-1-13,12.9,8.0,4.5,-1.6,-5.5,-7.9,59,53,46,29.99,29.73,12,5,12,0.00
2013-1-14,24.6,11.7,1.9,8.2,0.2,-7.9,68,60,46,30.13,29.98,12,1,12,0.00
2013-1-15,31.6,19.6,10.0,13.0,6.7,-0.6,69,57,43,30.07,29.72,10,2,10,0.00
2013-1-16,41.9,28.4,18.9,31.1,18.3,4.6,83,66,53,29.91,29.53,15,5,15,0.01
2013-1-17,27.7,18.7,9.3,14.2,6.4,-3.1,73,58,43,30.12,29.90,13,3,13,0.00
2013-1-18,48.2,34.9,22.6,31.8,23.8,14.0,74,64,51,30.05,29.55,14,3,14,0.01
2013-1-19,46.9,31.4,6.6,31.9,20.1,-8.9,76,63,45,29.89,29.50,27,7,27,0.00
2013-1-20,14.4,7.1,1.9,-3.7,-8.0,-11.3,55,49,37,30.08,29.90,15,6,15,0.00
2013-1-21,3.7,-1.8,-8.5,-10.9,-19.0,-28.1,51,42,36,30.04,29.95,21,7,21,0.00
2013-1-22,8.8,1.3,-6.7,-8.9,-15.9,-20.1,54,44,30,30.09,29.97,11,2,11,0.00
2013-1-23,22.5,12.0,-0.9,8.6,-3.8,-22.5,61,48,33,30.22,29.86,21,6,21,0.00
2013-1-24,16.7,7.0,-3.3,-4.0,-15.8,-23.0,42,34,25,30.33,29.92,13,4,13,0.00
2013-1-25,28.8,15.8,4.6,12.3,0.2,-7.9,57,50,31,29.98,29.72,19,5,19,0.00
2013-1-26,28.2,15.9,0.0,6.7,-2.2,-13.0,57,45,28,30.07,29.91,9,2,9,0.00
2013-1-27,32.5,29.6,25.5,28.3,20.0,6.7,84,69,44,29.92,29.50,11,1,11,0.17
2013-1-28,40.5,33.3,30.7,37.8,29.1,26.8,90,84,79,29.66,29.36,11,2,11,0.05
2013-1-29,46.2,37.1,32.2,43.5,32.7,26.1,91,84,77,29.37,29.25,14,5,14,0.11
2013-1-30,32.2,20.9,10.2,26.1,13.6,-0.1,80,73,62,29.48,29.21,22,11,22,0.01
2013-1-31,10.0,0.8,-7.4,0.0,-12.2,-20.6,64,53,44,29.98,29.47,17,8,17,0.00
2013-2-1,12.9,-0.3,-11.4,-1.1,-16.2,-26.0,63,47,28,30.03,29.74,12,3,12,0.00
2013-2-2,18.7,12.5,9.3,4.0,0.6,-5.0,70,59,43,29.85,29.66,11,3,11,0.00
2013-2-3,20.7,15.8,7.5,10.3,3.9,-3.4,72,59,43,29.81,29.58,17,4,17,0.00
2013-2-4,24.4,17.7,13.5,9.8,5.6,1.7,68,59,43,29.73,29.56,12,6,12,0.00
2013-2-5,36.5,28.2,13.5,24.2,17.7,2.8,75,65,58,29.83,29.49,17,7,17,0.06
2013-2-6,39.2,26.3,8.2,29.2,17.1,-0.7,81,68,49,29.85,29.65,6,2,6,0.14
2013-2-7,35.6,32.7,31.1,29.1,26.7,24.8,81,78,75,29.90,29.65,11,4,11,0.01
2013-2-8,25.0,24.8,0.0,24.8,18.0,17.9,74,73,74,30.07,29.90,0,0,0,0.00
2013-2-9,30.2,27.1,25.0,23.3,19.6,17.5,78,73,71,29.87,29.54,8,2,8,0.00
2013-2-10,39.4,34.7,29.3,36.1,30.4,23.6,89,84,79,29.55,28.91,14,3,14,0.43
2013-2-11,32.4,28.3,25.2,28.1,22.8,15.5,85,80,61,29.50,28.98,19,4,19,0.01
2013-2-12,42.6,27.6,19.9,26.0,17.6,10.4,80,66,48,29.69,29.44,8,2,8,0.01
2013-2-13,43.2,31.6,21.2,31.1,23.6,15.6,80,72,57,29.46,29.22,9,1,9,0.01
2013-2-14,40.1,32.3,21.0,28.5,20.9,0.1,77,63,36,29.73,29.22,18,8,18,0.01
2013-2-15,20.5,19.9,19.8,3.9,3.8,3.8,49,49,48,29.77,29.73,12,12,12,0.00
2013-2-16,30.6,15.3,8.6,12.2,3.4,-3.9,67,59,41,29.85,29.71,8,3,8,0.00
2013-2-17,37.2,25.3,13.1,19.2,12.5,3.3,66,58,44,29.72,29.32,15,3,15,0.00
2013-2-18,39.4,26.0,7.2,28.1,16.0,-5.9,76,65,53,29.40,29.17,21,6,21,0.00
2013-2-19,12.2,4.2,-2.0,-4.3,-9.8,-16.3,61,51,42,29.90,29.40,21,10,21,0.00
2013-2-20,25.2,9.9,-3.3,5.6,-5.5,-16.2,60,49,36,30.00,29.90,10,4,10,0.00
2013-2-21,24.1,17.5,10.2,14.9,5.5,-3.0,77,59,49,29.96,29.53,15,8,15,0.00
2013-2-22,32.7,27.8,21.2,21.5,18.3,14.9,77,68,59,29.53,29.41,13,5,13,0.02
2013-2-23,31.3,19.2,7.7,12.5,7.4,-2.3,72,60,45,29.57,29.49,9,3,9,0.05
2013-2-24,41.5,22.2,6.3,22.0,9.1,-3.0,68,58,42,29.70,29.57,4,1,4,0.00
2013-2-25,48.9,34.3,24.8,26.7,20.5,15.6,70,58,37,29.70,29.58,4,2,4,0.00
2013-2-26,34.2,30.5,26.2,23.8,19.7,15.9,78,64,60,29.57,29.33,13,8,13,0.00
2013-2-27,34.5,30.6,27.3,24.5,22.8,20.5,82,73,63,29.53,29.36,13,7,13,0.02
2013-2-28,28.8,27.0,25.9,22.2,18.9,17.3,76,71,69,29.68,29.52,11,10,11,0.00
2013-3-1,31.1,26.0,21.7,15.7,12.8,11.0,66,58,44,29.84,29.74,9,6,9,0.00
2013-3-2,33.8,18.5,7.0,9.9,3.2,-3.0,64,52,34,29.88,29.76,7,2,7,0.00
2013-3-3,41.9,25.0,10.8,11.0,6.3,1.3,66,47,24,29.76,29.59,8,2,8,0.00
2013-3-4,36.1,29.0,21.2,19.8,17.6,8.2,75,62,51,29.62,29.49,11,7,11,0.08
2013-3-5,35.2,30.5,24.6,22.8,19.5,18.0,76,64,53,29.82,29.53,10,5,10,0.00
2013-3-6,31.3,21.4,7.0,15.5,9.7,-3.0,71,61,47,29.95,29.81,13,6,13,0.12
2013-3-7,44.2,22.5,6.1,19.4,9.0,-3.5,71,57,33,29.96,29.90,8,2,8,0.05
2013-3-8,45.1,31.0,17.1,27.5,19.5,8.8,75,63,44,29.93,29.73,9,3,9,0.00
2013-3-9,37.0,35.1,32.7,32.1,30.1,25.7,84,82,75,29.72,29.34,8,3,8,0.66
2013-3-10,36.0,34.2,32.2,31.6,29.3,27.8,84,82,80,29.41,29.25,19,7,19,0.46
2013-3-11,32.4,28.5,21.4,27.2,21.7,12.8,85,76,67,29.48,29.29,8,5,8,0.00
2013-3-12,31.5,23.9,18.1,22.1,13.8,7.6,74,65,51,29.73,29.47,12,6,12,0.00
2013-3-13,35.2,20.3,11.3,12.4,6.9,2.5,70,57,35,29.97,29.74,8,5,8,0.01
2013-3-14,52.2,40.7,17.1,28.8,25.0,9.0,77,54,38,29.90,29.63,8,1,8,0.18
2013-3-15,45.7,33.7,25.2,31.7,25.9,18.7,81,73,56,29.62,29.36,11,3,11,0.00
2013-3-16,33.8,27.9,19.6,28.3,17.9,7.3,84,67,46,29.79,29.41,18,7,18,0.00
2013-3-17,19.6,19.1,18.7,7.3,5.6,4.9,58,55,54,29.80,29.78,8,6,8,0.00
2013-3-18,34.0,21.0,13.3,26.0,8.8,1.5,79,59,48,29.51,29.25,20,8,20,0.00
2013-3-19,30.6,17.3,7.7,7.5,0.2,-5.4,63,47,32,29.78,29.46,20,8,20,0.00
2013-3-20,25.7,13.9,6.6,1.2,-4.6,-9.5,54,43,30,29.81,29.70,17,9,17,0.00
2013-3-21,33.1,18.1,2.5,6.5,-1.5,-8.5,59,44,27,29.72,29.62,6,3,6,0.00
2013-3-22,41.9,24.1,7.5,12.6,5.3,-4.5,61,46,27,29.68,29.62,7,2,7,0.00
2013-3-23,43.9,30.7,16.7,19.7,12.6,5.1,65,49,26,29.73,29.64,10,4,10,0.00
2013-3-24,36.3,29.6,27.0,23.5,20.0,15.6,76,67,51,29.66,29.48,13,6,13,0.00
2013-3-25,37.4,28.6,22.3,20.8,16.3,12.2,70,60,47,29.79,29.52,16,7,16,0.00
2013-3-26,44.8,30.4,21.6,23.8,18.2,14.0,74,62,42,29.90,29.79,9,4,9,0.00
2013-3-27,51.8,38.7,19.0,34.9,17.9,11.6,85,48,27,29.94,29.88,6,1,6,0.00
2013-3-28,56.3,39.7,23.7,29.0,21.2,12.8,66,49,32,29.94,29.86,7,3,7,0.00
2013-3-29,59.5,45.3,28.9,33.0,27.2,17.6,70,51,34,29.90,29.74,8,2,8,0.00
2013-3-30,50.0,41.9,32.5,42.4,35.6,27.5,86,78,66,29.75,29.47,6,2,6,0.11
2013-3-31,43.3,34.8,27.7,34.4,26.1,15.3,87,72,46,29.65,29.44,16,5,16,0.01
2013-4-1,27.7,27.7,27.7,15.3,15.3,15.3,59,59,59,29.68,29.65,8,8,8,0.01
2013-4-2,40.5,29.9,18.3,21.5,16.0,10.5,76,57,38,29.93,29.84,9,4,9,0.00
2013-4-3,52.2,35.8,18.7,26.6,15.9,10.8,76,48,24,30.01,29.83,4,1,4,0.00
2013-4-4,57.9,45.8,31.5,38.1,30.6,16.8,71,56,42,29.82,29.63,8,4,11,0.00
2013-4-5,54.0,40.7,29.5,28.2,23.9,19.8,71,52,28,29.82,29.53,14,4,14,0.00
2013-4-6,63.5,46.5,37.4,47.3,34.9,22.7,85,65,42,29.53,29.13,15,5,15,0.12
2013-4-7,63.9,44.9,34.7,40.7,34.5,29.2,81,68,41,29.92,29.36,11,4,11,0.00
2013-4-8,68.7,51.7,45.0,51.8,42.6,38.3,80,71,54,29.97,29.71,13,4,13,0.21
2013-4-9,45.0,42.5,40.1,38.3,36.5,35.0,84,79,78,29.97,29.90,17,10,17,0.05
2013-4-10,37.8,34.2,32.2,34.5,28.9,26.3,88,81,78,30.12,29.85,17,9,17,0.31
2013-4-11,40.8,36.9,34.3,37.0,32.4,29.3,87,83,80,29.83,29.60,14,5,14,0.32
2013-4-12,36.1,33.5,30.7,31.5,26.1,22.6,84,74,65,29.91,29.61,11,4,11,0.02
2013-4-13,38.3,36.3,29.7,24.8,22.8,21.1,75,58,54,30.00,29.91,11,6,11,0.00
2013-4-14,54.7,39.8,32.4,51.2,32.7,22.7,88,76,63,29.97,29.52,13,5,13,1.37
2013-4-15,47.5,47.5,47.5,43.2,43.2,43.2,85,85,85,29.73,29.69,0,0,0,1.37
2013-4-16,54.7,40.7,28.0,31.9,27.6,21.0,80,61,39,30.32,30.07,10,4,10,0.00
2013-4-17,41.0,39.6,37.4,36.5,32.6,27.9,89,76,62,30.31,29.75,13,8,13,0.59
2013-4-18,40.6,37.0,32.2,36.8,32.8,26.6,88,84,79,29.80,29.49,10,6,10,0.30
2013-4-19,35.4,32.8,29.8,26.1,24.1,21.8,79,70,59,30.04,29.56,14,6,14,0.01
2013-4-20,55.0,38.2,25.3,23.7,18.5,10.2,76,49,22,30.34,30.05,6,2,6,0.00
2013-4-21,38.3,38.1,37.8,25.1,24.4,23.4,60,58,55,30.34,30.32,4,2,6,0.00
2013-4-22,61.0,52.1,46.4,45.7,43.7,42.0,87,74,53,30.22,29.96,8,2,8,0.17
2013-4-23,39.2,35.3,33.3,28.0,26.6,25.8,76,71,63,30.12,30.06,11,9,11,0.20
2013-4-24,56.1,50.3,36.1,33.1,28.6,25.1,73,45,31,30.09,29.99,21,10,21,0.04
2013-4-25,36.5,32.3,29.3,28.7,23.9,20.4,74,71,62,30.25,30.09,16,5,16,0.00
2013-4-26,76.3,64.1,39.4,48.1,44.7,30.4,82,52,32,30.24,30.12,13,3,13,0.00
2013-4-27,78.1,59.5,44.1,50.0,45.8,40.8,94,64,33,30.25,30.04,8,2,8,0.00
2013-4-28,84.0,62.6,40.6,49.9,45.2,38.9,95,59,26,30.05,29.81,8,1,8,0.00
2013-4-29,58.3,55.3,52.2,50.8,48.6,46.6,89,78,69,29.89,29.84,4,1,4,0.08
2013-4-30,82.9,70.1,51.6,59.4,54.2,43.0,87,60,36,30.01,29.62,14,5,14,0.06
2013-5-1,53.1,50.8,48.0,48.5,44.1,41.0,91,78,68,30.26,29.98,11,8,11,0.01
2013-5-2,36.7,33.2,31.6,32.0,31.0,29.9,97,92,81,30.46,30.34,18,8,18,0.47
2013-5-3,34.5,32.9,30.6,32.2,30.7,29.6,96,92,85,30.35,30.07,15,7,15,0.85
2013-5-4,66.0,47.0,33.8,56.0,42.9,32.0,99,86,69,30.12,30.02,11,7,11,0.33
2013-5-5,73.4,55.1,41.5,54.1,46.2,38.3,89,74,45,30.15,30.08,8,5,8,0.00
2013-5-6,81.1,63.3,49.5,52.6,48.6,46.0,90,62,33,30.14,30.07,4,2,4,0.00
2013-5-7,83.8,61.9,48.6,52.5,47.0,41.8,86,64,24,30.13,30.10,4,1,4,0.00
2013-5-8,84.6,65.1,51.4,53.3,47.7,43.8,78,58,30,30.08,30.05,2,0,2,0.00
2013-5-9,69.6,58.6,54.0,60.7,55.5,49.9,96,90,69,30.02,29.90,11,4,11,0.91
2013-5-10,70.2,54.4,43.3,51.3,46.3,40.0,97,76,45,30.08,29.99,14,5,14,0.00
2013-5-11,56.1,48.9,38.3,46.9,32.2,18.4,92,56,24,30.19,29.95,18,8,18,0.00
2013-5-12,62.2,45.7,28.2,30.1,25.6,20.8,84,49,23,30.25,30.14,13,5,13,0.00
2013-5-13,76.6,57.2,34.0,45.8,33.2,23.0,72,45,18,30.18,29.87,4,2,4,0.00
2013-5-14,95.5,90.9,50.0,57.9,51.7,46.1,87,29,23,29.85,29.59,4,2,4,0.00
2013-5-15,95.5,95.5,95.5,51.9,51.9,51.9,23,23,23,29.77,29.75,2,2,2,0.00
2013-5-16,94.6,73.2,50.2,52.3,46.6,43.3,82,44,18,30.01,29.91,4,1,4,0.00
2013-5-17,82.8,67.1,54.0,61.6,57.0,50.7,91,72,47,30.07,29.94,9,3,9,0.12
2013-5-18,91.9,73.5,56.7,63.9,58.8,52.1,87,63,37,30.06,29.91,8,2,8,0.00
2013-5-19,87.4,73.3,62.6,69.3,64.2,59.7,97,75,48,29.93,29.67,14,4,14,0.71
2013-5-20,81.5,69.4,59.7,62.5,60.4,57.6,99,76,49,29.77,29.64,8,3,8,0.34
2013-5-21,68.0,61.9,59.0,59.6,56.6,53.1,95,84,63,29.74,29.63,9,2,9,0.01
2013-5-22,73.6,60.5,54.7,57.4,54.5,52.2,96,81,57,29.90,29.70,8,2,8,0.13
2013-5-23,71.2,58.7,50.7,51.2,44.3,31.3,93,63,24,30.34,29.91,12,5,12,0.00
2013-5-24,75.7,58.9,44.1,48.4,41.2,35.4,83,55,28,30.43,30.27,4,2,4,0.13
2013-5-25,56.3,52.4,49.5,50.6,47.4,44.8,93,83,71,30.34,30.27,15,3,15,0.31
2013-5-26,55.6,50.9,45.7,51.7,47.1,42.3,98,87,79,30.27,30.08,13,4,13,0.69
2013-5-27,61.2,56.6,53.6,58.8,55.3,52.3,98,96,89,30.08,29.85,7,4,7,0.15
2013-5-28,56.5,55.0,54.5,56.2,54.3,53.7,99,97,97,29.85,29.74,5,3,5,0.08
2013-5-29,85.5,71.2,60.3,67.8,63.1,58.8,97,78,55,29.90,29.82,5,1,5,0.00
2013-5-30,79.7,70.0,63.3,66.4,63.3,59.3,97,80,59,29.81,29.66,8,3,8,0.19
2013-5-31,82.8,70.0,61.0,63.4,60.8,58.8,93,75,48,29.77,29.70,6,3,6,0.00
2013-6-1,76.5,64.4,56.1,62.1,56.4,52.2,98,77,54,29.92,29.68,9,3,9,0.27
2013-6-2,70.7,56.0,47.3,50.8,44.1,41.3,87,66,37,30.13,29.93,10,4,10,0.00
2013-6-3,79.0,62.0,44.2,49.0,43.9,39.9,88,56,25,30.16,30.05,6,2,6,0.00
2013-6-4,61.0,56.3,53.1,53.8,50.6,47.4,93,82,66,30.21,30.10,8,3,8,0.39
2013-6-5,76.1,59.2,54.5,62.8,55.7,50.3,97,89,61,30.11,29.98,6,1,7,0.27
2013-6-6,72.0,60.4,55.4,57.7,55.2,52.1,97,84,57,30.05,29.96,9,2,9,0.01
2013-6-7,68.2,56.7,54.1,57.4,53.2,51.9,96,88,66,30.08,30.03,8,2,8,0.00
2013-6-8,76.6,64.2,51.3,57.9,54.1,50.2,96,72,46,30.00,29.94,5,1,5,0.01
2013-6-9,73.6,65.8,61.3,65.0,58.2,52.0,92,77,69,29.93,29.84,12,3,12,0.14
2013-6-10,85.5,71.6,61.2,63.4,60.3,58.1,93,69,46,29.96,29.85,6,1,6,0.00
2013-6-11,88.5,69.8,59.2,67.4,61.2,57.9,96,78,42,29.98,29.93,4,0,4,0.00
2013-6-12,86.7,74.0,66.7,72.1,67.9,64.0,96,82,59,30.00,29.74,8,4,8,1.18
2013-6-13,65.8,63.9,62.6,63.5,61.5,60.3,92,92,91,29.99,29.92,3,1,3,0.00
2013-6-14,81.5,66.0,58.1,59.4,56.3,53.6,86,72,47,30.17,30.11,5,2,8,0.00
2013-6-15,83.1,71.5,63.3,70.2,65.0,60.3,95,81,59,30.07,29.92,6,2,6,0.25
2013-6-16,89.6,75.4,62.4,66.9,58.4,47.7,96,62,25,30.02,29.97,8,2,8,0.00
2013-6-17,91.0,75.4,59.0,62.1,56.3,52.0,85,55,32,30.03,29.96,8,2,8,0.00
2013-6-18,87.1,74.1,61.9,60.3,56.9,54.8,85,57,37,30.15,30.02,7,2,7,0.00
2013-6-19,92.7,73.7,59.4,62.6,56.6,50.7,83,58,33,30.19,30.07,9,2,9,0.00
2013-6-20,94.1,79.9,64.6,67.6,61.8,57.2,80,56,38,30.14,30.02,13,2,13,0.00
2013-6-21,90.3,76.5,63.1,71.8,66.4,61.7,96,72,52,30.10,29.95,17,3,17,0.66
2013-6-22,73.0,72.6,72.0,67.6,67.0,66.6,84,83,82,30.01,29.97,5,2,5,0.00
2013-6-23,86.5,73.5,65.7,70.2,65.8,61.8,95,78,53,30.02,29.85,8,3,8,0.20
2013-6-24,80.1,69.7,65.5,69.7,66.1,64.0,96,89,70,30.08,29.91,7,1,7,0.24
2013-6-25,93.6,75.1,65.8,75.9,69.6,64.3,96,84,54,29.94,29.83,4,2,4,0.08
2013-6-26,92.1,76.7,68.7,74.0,68.2,64.4,90,76,54,29.91,29.78,4,1,4,0.00
2013-6-27,89.8,77.5,64.4,68.9,61.8,52.8,95,63,30,29.94,29.89,12,3,12,0.00
2013-6-28,81.3,75.5,64.9,60.9,58.0,57.4,85,55,46,29.91,29.82,12,8,12,0.00
2013-6-29,69.4,64.9,60.8,63.5,59.9,55.7,95,84,71,29.99,29.80,14,4,14,0.51
2013-6-30,82.9,68.0,57.2,55.9,51.5,43.8,85,59,26,30.16,29.99,16,4,16,0.00
2013-7-1,85.3,71.2,58.1,58.8,53.5,48.5,81,57,31,30.23,30.16,11,3,11,0.00
2013-7-2,90.0,76.4,57.4,59.8,56.3,50.1,93,53,29,30.20,29.87,8,2,8,0.00
2013-7-3,85.3,66.7,57.0,60.3,55.6,52.6,86,70,40,29.92,29.88,5,1,5,0.00
2013-7-4,93.9,76.0,58.8,63.3,57.7,51.1,86,57,32,29.88,29.80,8,2,8,0.00
2013-7-5,93.0,77.8,61.9,63.5,60.0,56.1,83,57,36,29.85,29.76,4,2,4,0.00
2013-7-6,97.5,81.7,65.8,68.5,64.4,61.0,85,58,35,29.82,29.73,7,2,7,0.00
2013-7-7,97.7,82.1,68.2,70.3,67.3,64.8,89,63,41,29.77,29.70,10,2,10,0.00
2013-7-8,103.3,83.7,71.2,73.4,71.2,69.3,96,69,37,29.81,29.73,4,1,4,0.19
2013-7-9,85.1,75.9,71.4,75.5,72.4,69.6,96,90,73,29.81,29.74,4,1,4,0.21
2013-7-10,86.2,78.4,66.4,67.7,57.7,53.9,90,51,35,29.90,29.75,12,4,12,0.00
2013-7-11,94.5,75.4,57.2,63.4,58.5,55.5,95,60,32,29.96,29.88,7,1,7,0.00
2013-7-12,87.4,69.8,61.2,63.4,58.9,56.1,84,70,44,29.94,29.90,6,1,6,0.00
2013-7-13,76.8,67.3,61.7,65.2,60.2,57.1,94,78,63,29.98,29.86,5,1,5,0.27
2013-7-14,93.9,77.7,62.8,68.0,63.3,58.2,86,64,38,30.04,29.94,6,1,6,0.00
2013-7-15,96.3,80.8,65.5,72.1,68.2,62.1,95,69,45,30.10,30.01,4,1,4,0.00
2013-7-16,100.0,84.1,72.0,75.4,71.8,69.4,92,70,41,30.09,30.04,4,1,4,0.00
2013-7-17,102.4,89.5,71.8,75.7,71.5,68.4,93,58,37,30.13,30.00,7,1,7,0.00
2013-7-18,90.3,76.8,72.0,73.8,70.7,68.9,91,82,55,30.01,29.93,8,1,8,0.00
2013-7-19,93.4,80.9,65.1,73.7,66.8,59.5,87,65,38,29.75,29.67,7,2,7,0.08
2013-7-20,92.3,75.5,60.4,67.3,62.9,59.1,96,69,40,29.80,29.73,5,1,5,0.00
2013-7-21,89.4,73.4,65.3,73.2,65.7,61.6,95,78,50,29.77,29.68,4,1,4,0.21
2013-7-22,93.6,73.7,63.0,74.7,65.9,59.5,98,79,48,29.71,29.53,9,2,9,0.00
2013-7-23,83.3,74.3,59.5,63.9,55.2,50.6,94,53,36,29.81,29.64,11,4,11,0.00
2013-7-24,82.4,67.9,54.5,57.4,54.6,51.9,91,65,42,29.91,29.84,4,1,4,0.00
2013-7-25,86.9,69.0,57.2,65.9,60.0,54.7,97,76,45,29.87,29.79,8,2,8,0.30
2013-7-26,76.8,67.3,57.4,66.5,59.2,51.3,98,78,49,29.85,29.76,7,3,7,0.01
2013-7-27,66.0,56.4,48.2,51.5,47.7,45.5,93,74,51,29.87,29.77,8,3,8,0.00
2013-7-28,77.5,61.6,47.5,52.7,49.4,45.2,92,67,39,29.89,29.75,5,3,5,0.00
2013-7-29,87.1,72.4,49.3,57.9,54.5,48.5,97,56,35,29.97,29.89,7,1,7,0.00
2013-7-30,83.8,69.2,61.3,65.5,59.9,53.5,91,73,52,29.95,29.89,7,1,7,0.00
2013-7-31,81.7,67.5,61.0,67.9,62.6,59.6,96,86,53,29.93,29.89,9,1,9,0.00
2013-8-1,86.4,71.2,56.8,65.6,58.7,52.2,95,69,36,29.90,29.72,5,1,5,0.00
2013-8-2,83.5,70.5,62.4,62.9,59.0,53.2,93,70,40,29.86,29.71,5,2,5,0.00
2013-8-3,84.4,70.9,55.0,58.4,52.7,48.6,87,57,32,30.00,29.86,6,2,6,0.00
2013-8-4,84.2,70.4,53.6,56.1,53.3,48.6,89,58,35,30.05,29.91,3,1,3,0.00
2013-8-5,84.6,70.8,60.1,71.0,66.1,54.0,98,85,62,29.88,29.68,7,1,7,0.77
2013-8-6,89.1,71.5,62.2,73.5,66.4,61.7,99,86,53,29.73,29.65,6,0,6,0.00
2013-8-7,82.0,70.6,58.5,68.6,61.2,54.3,94,74,46,29.85,29.63,8,2,8,0.00
2013-8-8,87.4,74.5,55.8,63.3,59.1,51.8,90,61,39,29.88,29.83,7,1,7,0.00
2013-8-9,82.4,71.3,56.8,64.1,58.3,52.4,87,66,41,29.95,29.83,11,2,11,0.00
2013-8-10,85.8,67.6,51.6,60.9,56.0,50.4,97,70,41,30.03,29.93,9,1,9,0.00
2013-8-11,83.5,68.0,63.0,67.9,62.7,58.3,95,84,55,29.95,29.84,7,1,7,0.11
2013-8-12,84.2,67.3,58.8,68.8,62.4,55.4,98,87,41,29.88,29.82,8,1,8,0.00
2013-8-13,76.1,63.1,55.6,56.4,53.4,46.2,91,74,35,30.01,29.88,10,3,10,0.00
2013-8-14,82.8,70.0,47.8,56.5,51.1,45.0,97,54,27,30.05,29.96,8,2,8,0.00
2013-8-15,87.1,66.0,50.5,58.6,52.5,48.2,95,66,34,30.00,29.93,10,1,10,0.00
2013-8-16,84.0,62.8,52.2,60.5,54.7,50.2,96,78,40,30.04,29.98,4,1,4,0.00
2013-8-17,91.2,71.0,53.6,60.7,55.6,51.0,93,64,31,30.06,29.97,4,1,4,0.00
2013-8-18,89.2,71.4,54.3,61.8,57.7,52.6,96,66,37,30.02,29.91,5,1,5,0.00
2013-8-19,91.2,77.2,56.3,66.4,62.8,54.5,94,64,42,29.91,29.83,12,2,12,0.00
2013-8-20,95.0,77.8,64.4,71.1,66.2,61.1,89,70,45,29.85,29.77,10,2,10,0.00
2013-8-21,90.0,76.5,68.9,71.7,67.0,64.6,87,73,51,29.81,29.79,12,2,12,0.00
2013-8-22,90.5,76.8,65.7,71.5,67.6,65.0,98,75,48,29.94,29.81,18,1,18,0.63
2013-8-23,91.2,74.4,62.4,73.1,65.4,61.5,99,76,44,29.99,29.92,11,1,11,0.00
2013-8-24,92.8,77.6,65.8,74.2,67.1,58.6,84,71,51,30.00,29.91,11,2,11,0.00
2013-8-25,99.3,82.4,71.2,73.8,69.9,65.5,85,68,43,29.99,29.88,11,2,11,0.00
2013-8-26,98.8,82.4,69.8,75.9,71.6,66.3,92,72,46,29.92,29.77,11,2,11,0.00
2013-8-27,98.6,83.1,71.4,77.1,71.7,67.7,89,71,45,29.79,29.68,14,2,14,0.00
2013-8-28,93.2,80.5,73.0,77.9,74.4,71.6,97,83,57,29.86,29.73,6,2,6,0.00
2013-8-29,75.4,74.0,72.5,71.9,71.2,70.1,93,91,89,29.87,29.85,4,1,4,0.00
2013-8-30,81.3,71.1,64.9,60.5,58.2,56.9,77,65,46,29.73,29.67,12,4,12,0.00
2013-8-31,68.9,65.1,62.1,63.8,60.1,55.6,95,84,71,29.80,29.62,14,4,14,0.51
2013-9-1,82.6,68.1,57.2,56.3,51.9,46.3,85,60,30,29.97,29.80,10,4,10,0.00
2013-9-2,84.9,61.2,50.0,58.4,51.0,47.5,91,72,32,30.05,29.93,10,2,10,0.00
2013-9-3,83.5,63.2,46.6,57.9,52.3,45.3,96,72,39,30.00,29.92,8,1,8,0.00
2013-9-4,92.3,72.5,55.8,67.8,60.3,51.8,90,69,42,30.02,29.94,10,1,10,0.00
2013-9-5,91.8,75.2,65.7,69.6,65.8,61.9,90,74,48,30.11,30.01,8,2,8,0.00
2013-9-6,88.2,70.5,62.2,65.7,61.5,58.0,87,75,45,30.05,29.98,9,2,9,0.00
2013-9-7,96.6,79.0,65.1,71.1,66.2,59.2,89,67,44,29.84,29.78,5,1,5,0.05
2013-9-8,81.1,73.4,69.1,69.1,65.5,63.5,88,77,59,29.92,29.80,6,3,6,0.00
2013-9-9,102.2,88.0,67.1,72.9,67.3,62.8,95,53,35,29.79,29.65,11,2,11,0.00
2013-9-10,97.5,78.9,66.2,68.4,63.8,60.9,84,62,37,29.91,29.73,10,2,10,0.00
2013-9-11,90.9,73.1,61.2,68.7,62.1,55.8,95,71,36,29.97,29.90,8,1,8,0.06
2013-9-12,61.7,60.4,60.1,57.1,55.7,55.4,88,85,83,30.01,29.93,2,0,2,0.00
2013-9-18,89.2,70.6,62.1,70.8,64.9,59.5,96,84,53,29.80,29.58,6,1,6,0.02
2013-9-19,90.9,75.0,66.0,70.5,66.9,64.5,95,78,45,29.62,29.51,8,2,8,0.21
2013-9-20,65.7,59.0,49.8,63.8,52.4,46.4,95,79,60,29.73,29.62,10,4,10,0.01
2013-9-21,74.3,55.8,43.5,50.7,46.2,42.7,97,74,40,29.78,29.70,5,2,5,0.00
2013-9-22,83.1,62.7,46.9,54.1,49.7,44.2,91,66,37,29.79,29.71,4,2,4,0.00
2013-9-23,82.2,62.9,48.0,53.4,48.9,45.4,92,64,32,29.81,29.72,13,3,13,0.00
2013-9-24,82.0,74.6,48.9,55.1,52.9,45.5,88,49,39,29.76,29.71,8,3,8,0.00
2013-9-25,84.9,64.7,49.6,55.6,51.3,47.4,94,66,35,29.79,29.70,7,2,7,0.00
2013-9-26,88.7,75.7,52.7,62.3,58.8,48.3,86,58,39,29.78,29.72,13,3,13,0.00
2013-9-27,85.3,65.5,60.3,63.0,56.6,53.6,81,74,47,29.83,29.78,9,2,9,0.00
2013-9-28,69.8,60.5,46.0,63.6,55.0,45.2,97,83,70,29.80,29.58,8,2,8,0.19
2013-9-29,81.5,59.2,41.5,55.1,44.7,41.3,99,66,25,29.85,29.72,7,1,7,0.01
2013-9-30,82.2,68.2,49.3,52.1,49.0,44.4,86,54,31,29.73,29.53,13,2,13,0.00
2013-10-1,86.4,66.5,51.6,58.6,50.9,41.6,95,63,23,29.80,29.57,10,2,10,0.00
2013-10-2,87.1,66.4,47.5,56.6,44.4,32.3,79,50,18,29.88,29.68,12,2,12,0.00
2013-10-3,84.9,67.1,61.5,69.2,61.0,56.1,97,82,53,29.70,29.57,6,1,6,0.30
2013-10-4,65.3,64.4,64.2,64.4,63.7,63.4,98,97,97,29.68,29.65,5,3,5,0.00
2013-10-5,70.3,58.8,41.4,67.1,49.6,37.4,95,73,43,29.67,29.57,8,2,8,0.01
2013-10-6,50.4,45.7,43.5,48.1,41.8,38.6,97,86,70,29.61,29.51,4,1,4,0.22
2013-10-7,76.8,55.6,40.6,48.9,44.8,39.9,97,71,35,29.83,29.62,6,2,6,0.00
2013-10-8,82.8,62.7,45.7,49.4,43.8,39.8,87,56,23,29.85,29.76,13,2,13,0.00
2013-10-9,84.2,63.2,49.1,52.9,46.7,42.9,88,59,26,29.92,29.83,5,1,5,0.00
2013-10-10,82.8,62.9,46.9,54.2,48.0,42.4,86,62,33,29.88,29.74,7,1,7,0.00
2013-10-11,80.6,71.5,53.8,57.8,54.6,49.3,90,56,41,29.75,29.56,14,4,14,0.00
2013-10-12,69.1,57.1,40.6,57.0,40.5,29.5,85,57,25,30.00,29.59,20,3,20,0.00
2013-10-13,72.9,50.1,32.9,41.6,30.9,24.8,87,54,19,30.21,30.00,7,1,7,0.00
2013-10-14,67.5,47.5,39.4,39.9,34.7,32.2,77,63,31,30.17,30.00,16,2,16,0.00
2013-10-15,55.6,52.5,48.7,55.0,49.1,44.1,98,88,73,29.71,29.56,12,4,12,0.28
2013-10-16,49.3,45.0,37.2,46.9,42.0,34.8,99,89,84,29.75,29.60,7,2,7,0.01
2013-10-17,62.8,47.0,35.6,47.0,38.0,33.3,99,75,35,29.73,29.60,10,1,10,0.00
2013-10-18,53.8,43.5,33.1,41.0,34.4,27.4,91,72,43,29.78,29.66,11,3,11,0.00
2013-10-19,52.7,39.1,29.7,44.1,33.3,24.7,92,80,63,29.70,29.53,11,2,11,0.06
2013-10-20,60.3,41.1,26.6,44.3,33.6,22.3,89,75,55,29.67,29.45,11,2,11,0.00
2013-10-21,43.9,36.7,31.6,31.9,25.1,20.4,80,64,45,29.78,29.67,14,5,14,0.00
2013-10-22,48.0,34.8,24.1,29.2,25.5,18.8,83,69,47,29.80,29.71,6,2,6,0.00
2013-10-23,34.2,31.9,27.0,27.8,26.0,21.3,82,79,75,29.81,29.77,2,1,2,0.00
2013-10-25,52.9,52.9,52.9,26.7,26.7,26.7,36,36,36,29.99,29.98,5,5,5,0.00
2013-10-31,55.9,46.1,38.7,54.8,44.2,36.4,99,93,85,29.44,29.21,8,3,8,0.01
2013-11-1,52.5,43.2,36.7,40.3,37.0,31.9,91,80,55,29.59,29.24,10,4,10,0.00
2013-11-2,52.2,38.4,30.6,35.9,29.7,23.6,90,72,45,29.91,29.61,8,3,8,0.00
2013-11-3,57.0,42.6,30.9,35.6,31.0,25.6,83,65,41,29.94,29.75,11,3,11,0.00
2013-11-4,48.4,43.3,32.5,44.6,38.5,30.5,95,83,64,29.93,29.72,7,2,7,0.11
2013-11-5,45.9,39.2,30.0,44.8,37.9,28.5,98,95,87,29.98,29.58,8,3,8,1.35
2013-11-6,44.6,37.7,34.5,38.4,32.1,27.9,97,81,52,29.86,29.59,13,9,13,0.08
2013-11-14,49.8,37.8,28.6,31.0,24.5,16.6,74,59,47,29.77,29.62,5,2,5,0.00
2013-11-15,57.6,39.0,25.0,38.5,30.0,20.1,86,71,49,29.67,29.55,4,1,4,0.00
2013-11-16,58.1,47.7,38.8,54.2,44.2,32.6,94,88,77,29.54,29.10,6,2,6,0.06
2013-11-17,44.8,41.6,36.1,41.0,37.0,29.5,90,84,75,29.64,29.12,14,4,14,0.07
2013-11-18,37.8,31.5,21.6,27.9,22.3,15.8,78,69,55,30.03,29.64,14,6,14,0.00
2013-11-19,44.1,32.9,19.9,29.4,22.8,14.5,81,67,49,30.04,29.83,6,3,6,0.00
2013-11-20,37.4,36.2,35.6,29.0,28.3,23.2,75,73,57,29.83,29.73,6,4,6,0.00
2013-11-21,36.1,36.1,36.1,29.0,29.0,29.0,75,75,75,29.99,29.82,4,4,4,0.00